sensor_id;sensor_type;location;lat;lon;timestamp;P1;durP1;ratioP1;P2;durP2;ratioP2
14306;SDS011;7237;49.500;11.400;2024-01-10T00:00:09;7.30;;;5.00;;
14306;SDS011;7237;49.500;11.400;2024-01-10T00:02:36;7.83;;;4.77;;
14306;SDS011;7237;49.500;11.400;2024-01-10T00:05:04;8.30;;;5.07;;
14306;SDS011;7237;49.500;11.400;2024-01-10T00:07:31;6.07;;;4.43;;
14306;SDS011;7237;49.500;11.400;2024-01-10T00:09:58;8.23;;;4.57;;
14306;SDS011;7237;49.500;11.400;2024-01-10T00:12:28;7.77;;;4.77;;
14306;SDS011;7237;49.500;11.400;2024-01-10T00:14:59;7.13;;;4.40;;
14306;SDS011;7237;49.500;11.400;2024-01-10T00:17:26;8.20;;;4.20;;
14306;SDS011;7237;49.500;11.400;2024-01-10T00:19:53;8.57;;;4.87;;
14306;SDS011;7237;49.500;11.400;2024-01-10T00:22:21;7.13;;;4.73;;
14306;SDS011;7237;49.500;11.400;2024-01-10T00:24:48;8.13;;;4.67;;
14306;SDS011;7237;49.500;11.400;2024-01-10T00:27:15;6.80;;;4.33;;
14306;SDS011;7237;49.500;11.400;2024-01-10T00:29:43;6.97;;;4.10;;
14306;SDS011;7237;49.500;11.400;2024-01-10T00:32:11;12.53;;;4.77;;
14306;SDS011;7237;49.500;11.400;2024-01-10T00:34:38;7.07;;;4.67;;
14306;SDS011;7237;49.500;11.400;2024-01-10T00:37:05;9.03;;;4.40;;
14306;SDS011;7237;49.500;11.400;2024-01-10T00:39:32;6.90;;;4.73;;
14306;SDS011;7237;49.500;11.400;2024-01-10T00:41:59;7.90;;;4.60;;
14306;SDS011;7237;49.500;11.400;2024-01-10T00:44:26;8.03;;;4.50;;
14306;SDS011;7237;49.500;11.400;2024-01-10T00:46:54;7.07;;;4.53;;
14306;SDS011;7237;49.500;11.400;2024-01-10T00:49:21;11.43;;;4.00;;
14306;SDS011;7237;49.500;11.400;2024-01-10T00:51:48;7.80;;;4.50;;
14306;SDS011;7237;49.500;11.400;2024-01-10T00:54:16;7.70;;;4.63;;
14306;SDS011;7237;49.500;11.400;2024-01-10T00:56:43;8.07;;;4.67;;
14306;SDS011;7237;49.500;11.400;2024-01-10T00:59:10;6.30;;;4.60;;
14306;SDS011;7237;49.500;11.400;2024-01-10T01:01:37;7.23;;;4.40;;
14306;SDS011;7237;49.500;11.400;2024-01-10T01:04:05;7.70;;;4.93;;
14306;SDS011;7237;49.500;11.400;2024-01-10T01:06:32;5.37;;;3.93;;
14306;SDS011;7237;49.500;11.400;2024-01-10T01:08:59;8.10;;;4.47;;
14306;SDS011;7237;49.500;11.400;2024-01-10T01:11:27;10.03;;;4.57;;
14306;SDS011;7237;49.500;11.400;2024-01-10T01:13:54;7.00;;;4.20;;
14306;SDS011;7237;49.500;11.400;2024-01-10T01:16:21;6.50;;;4.63;;
14306;SDS011;7237;49.500;11.400;2024-01-10T01:18:48;7.90;;;4.57;;
14306;SDS011;7237;49.500;11.400;2024-01-10T01:21:16;8.97;;;5.13;;
14306;SDS011;7237;49.500;11.400;2024-01-10T01:23:43;6.27;;;4.13;;
14306;SDS011;7237;49.500;11.400;2024-01-10T01:26:10;5.97;;;4.40;;
14306;SDS011;7237;49.500;11.400;2024-01-10T01:28:39;6.50;;;4.57;;
14306;SDS011;7237;49.500;11.400;2024-01-10T01:31:06;6.40;;;4.47;;
14306;SDS011;7237;49.500;11.400;2024-01-10T01:33:33;8.73;;;4.80;;
14306;SDS011;7237;49.500;11.400;2024-01-10T01:36:01;8.73;;;5.27;;
14306;SDS011;7237;49.500;11.400;2024-01-10T01:38:30;7.60;;;4.77;;
14306;SDS011;7237;49.500;11.400;2024-01-10T01:40:57;6.33;;;4.50;;
14306;SDS011;7237;49.500;11.400;2024-01-10T01:43:24;6.87;;;5.00;;
14306;SDS011;7237;49.500;11.400;2024-01-10T01:45:53;7.07;;;4.67;;
14306;SDS011;7237;49.500;11.400;2024-01-10T01:48:20;7.43;;;4.73;;
14306;SDS011;7237;49.500;11.400;2024-01-10T01:50:49;8.13;;;5.03;;
14306;SDS011;7237;49.500;11.400;2024-01-10T01:53:17;7.07;;;5.23;;
14306;SDS011;7237;49.500;11.400;2024-01-10T01:55:46;9.03;;;4.87;;
14306;SDS011;7237;49.500;11.400;2024-01-10T01:58:13;7.37;;;4.50;;
14306;SDS011;7237;49.500;11.400;2024-01-10T02:00:41;8.87;;;5.10;;
14306;SDS011;7237;49.500;11.400;2024-01-10T02:03:09;8.50;;;4.77;;
14306;SDS011;7237;49.500;11.400;2024-01-10T02:05:36;7.73;;;4.77;;
14306;SDS011;7237;49.500;11.400;2024-01-10T02:08:03;6.77;;;4.90;;
14306;SDS011;7237;49.500;11.400;2024-01-10T02:10:31;8.30;;;5.03;;
14306;SDS011;7237;49.500;11.400;2024-01-10T02:12:59;7.53;;;4.87;;
14306;SDS011;7237;49.500;11.400;2024-01-10T02:15:26;11.50;;;5.90;;
14306;SDS011;7237;49.500;11.400;2024-01-10T02:17:54;7.37;;;4.97;;
14306;SDS011;7237;49.500;11.400;2024-01-10T02:20:21;7.40;;;4.63;;
14306;SDS011;7237;49.500;11.400;2024-01-10T02:22:48;7.23;;;4.47;;
14306;SDS011;7237;49.500;11.400;2024-01-10T02:25:17;6.63;;;4.63;;
14306;SDS011;7237;49.500;11.400;2024-01-10T02:27:44;7.63;;;4.77;;
14306;SDS011;7237;49.500;11.400;2024-01-10T02:30:11;8.23;;;5.03;;
14306;SDS011;7237;49.500;11.400;2024-01-10T02:32:38;7.67;;;4.67;;
14306;SDS011;7237;49.500;11.400;2024-01-10T02:35:06;5.40;;;4.13;;
14306;SDS011;7237;49.500;11.400;2024-01-10T02:37:33;7.30;;;4.50;;
14306;SDS011;7237;49.500;11.400;2024-01-10T02:40:00;8.57;;;5.10;;
14306;SDS011;7237;49.500;11.400;2024-01-10T02:42:29;8.60;;;4.37;;
14306;SDS011;7237;49.500;11.400;2024-01-10T02:44:56;7.60;;;5.03;;
14306;SDS011;7237;49.500;11.400;2024-01-10T02:47:23;6.50;;;4.50;;
14306;SDS011;7237;49.500;11.400;2024-01-10T02:49:50;6.43;;;4.43;;
14306;SDS011;7237;49.500;11.400;2024-01-10T02:52:17;8.53;;;4.97;;
14306;SDS011;7237;49.500;11.400;2024-01-10T02:54:45;7.03;;;4.37;;
14306;SDS011;7237;49.500;11.400;2024-01-10T02:57:12;7.27;;;4.63;;
14306;SDS011;7237;49.500;11.400;2024-01-10T02:59:41;6.93;;;4.70;;
14306;SDS011;7237;49.500;11.400;2024-01-10T03:02:08;7.47;;;4.57;;
14306;SDS011;7237;49.500;11.400;2024-01-10T03:04:35;8.20;;;5.07;;
14306;SDS011;7237;49.500;11.400;2024-01-10T03:07:02;7.50;;;5.13;;
14306;SDS011;7237;49.500;11.400;2024-01-10T03:09:29;7.87;;;4.20;;
14306;SDS011;7237;49.500;11.400;2024-01-10T03:11:56;6.87;;;4.40;;
14306;SDS011;7237;49.500;11.400;2024-01-10T03:14:23;9.00;;;4.57;;
14306;SDS011;7237;49.500;11.400;2024-01-10T03:16:51;7.50;;;4.17;;
14306;SDS011;7237;49.500;11.400;2024-01-10T03:19:19;7.00;;;4.23;;
14306;SDS011;7237;49.500;11.400;2024-01-10T03:21:46;6.87;;;4.20;;
14306;SDS011;7237;49.500;11.400;2024-01-10T03:24:13;6.27;;;4.63;;
14306;SDS011;7237;49.500;11.400;2024-01-10T03:26:40;9.43;;;4.27;;
14306;SDS011;7237;49.500;11.400;2024-01-10T03:29:07;7.20;;;4.57;;
14306;SDS011;7237;49.500;11.400;2024-01-10T03:31:34;6.63;;;4.77;;
14306;SDS011;7237;49.500;11.400;2024-01-10T03:34:03;7.47;;;4.53;;
14306;SDS011;7237;49.500;11.400;2024-01-10T03:36:30;9.13;;;4.77;;
14306;SDS011;7237;49.500;11.400;2024-01-10T03:38:57;7.43;;;4.60;;
14306;SDS011;7237;49.500;11.400;2024-01-10T03:41:24;6.23;;;4.33;;
14306;SDS011;7237;49.500;11.400;2024-01-10T03:43:51;7.83;;;4.23;;
14306;SDS011;7237;49.500;11.400;2024-01-10T03:46:19;6.80;;;4.27;;
14306;SDS011;7237;49.500;11.400;2024-01-10T03:48:46;7.67;;;4.33;;
14306;SDS011;7237;49.500;11.400;2024-01-10T03:51:15;9.73;;;4.77;;
14306;SDS011;7237;49.500;11.400;2024-01-10T03:53:42;6.90;;;4.50;;
14306;SDS011;7237;49.500;11.400;2024-01-10T03:56:09;7.10;;;4.47;;
14306;SDS011;7237;49.500;11.400;2024-01-10T03:58:36;6.80;;;4.77;;
14306;SDS011;7237;49.500;11.400;2024-01-10T04:01:05;5.73;;;4.40;;
14306;SDS011;7237;49.500;11.400;2024-01-10T04:03:32;6.00;;;3.80;;
14306;SDS011;7237;49.500;11.400;2024-01-10T04:05:59;7.93;;;4.67;;
14306;SDS011;7237;49.500;11.400;2024-01-10T04:08:28;7.07;;;4.47;;
14306;SDS011;7237;49.500;11.400;2024-01-10T04:10:55;8.00;;;4.37;;
14306;SDS011;7237;49.500;11.400;2024-01-10T04:13:22;7.53;;;4.80;;
14306;SDS011;7237;49.500;11.400;2024-01-10T04:15:49;5.63;;;4.10;;
14306;SDS011;7237;49.500;11.400;2024-01-10T04:18:16;7.93;;;4.83;;
14306;SDS011;7237;49.500;11.400;2024-01-10T04:20:44;6.23;;;3.93;;
14306;SDS011;7237;49.500;11.400;2024-01-10T04:23:11;7.23;;;4.73;;
14306;SDS011;7237;49.500;11.400;2024-01-10T04:25:40;6.90;;;4.57;;
14306;SDS011;7237;49.500;11.400;2024-01-10T04:28:07;7.37;;;4.23;;
14306;SDS011;7237;49.500;11.400;2024-01-10T04:30:34;6.77;;;4.13;;
14306;SDS011;7237;49.500;11.400;2024-01-10T04:33:01;8.73;;;4.30;;
14306;SDS011;7237;49.500;11.400;2024-01-10T04:35:28;6.77;;;4.40;;
14306;SDS011;7237;49.500;11.400;2024-01-10T04:37:55;6.87;;;4.83;;
14306;SDS011;7237;49.500;11.400;2024-01-10T04:40:22;7.50;;;3.97;;
14306;SDS011;7237;49.500;11.400;2024-01-10T04:42:51;8.17;;;4.77;;
14306;SDS011;7237;49.500;11.400;2024-01-10T04:45:18;6.37;;;4.10;;
14306;SDS011;7237;49.500;11.400;2024-01-10T04:47:45;7.20;;;4.40;;
14306;SDS011;7237;49.500;11.400;2024-01-10T04:50:12;6.17;;;4.20;;
14306;SDS011;7237;49.500;11.400;2024-01-10T04:52:39;7.37;;;4.40;;
14306;SDS011;7237;49.500;11.400;2024-01-10T04:55:06;6.40;;;4.23;;
14306;SDS011;7237;49.500;11.400;2024-01-10T04:57:34;7.77;;;4.27;;
14306;SDS011;7237;49.500;11.400;2024-01-10T05:00:02;8.50;;;4.50;;
14306;SDS011;7237;49.500;11.400;2024-01-10T05:02:30;6.87;;;4.50;;
14306;SDS011;7237;49.500;11.400;2024-01-10T05:04:57;6.47;;;4.23;;
14306;SDS011;7237;49.500;11.400;2024-01-10T05:07:24;6.10;;;4.07;;
14306;SDS011;7237;49.500;11.400;2024-01-10T05:09:51;5.90;;;4.47;;
14306;SDS011;7237;49.500;11.400;2024-01-10T05:12:19;8.97;;;4.70;;
14306;SDS011;7237;49.500;11.400;2024-01-10T05:14:46;6.87;;;4.53;;
14306;SDS011;7237;49.500;11.400;2024-01-10T05:17:14;9.50;;;4.40;;
14306;SDS011;7237;49.500;11.400;2024-01-10T05:19:41;6.10;;;4.20;;
14306;SDS011;7237;49.500;11.400;2024-01-10T05:22:08;6.27;;;4.37;;
14306;SDS011;7237;49.500;11.400;2024-01-10T05:24:35;6.07;;;4.17;;
14306;SDS011;7237;49.500;11.400;2024-01-10T05:27:02;7.97;;;4.63;;
14306;SDS011;7237;49.500;11.400;2024-01-10T05:29:29;8.53;;;4.63;;
14306;SDS011;7237;49.500;11.400;2024-01-10T05:31:57;5.37;;;4.00;;
14306;SDS011;7237;49.500;11.400;2024-01-10T05:34:25;5.17;;;3.90;;
14306;SDS011;7237;49.500;11.400;2024-01-10T05:36:52;5.97;;;4.00;;
14306;SDS011;7237;49.500;11.400;2024-01-10T05:39:19;6.43;;;3.70;;
14306;SDS011;7237;49.500;11.400;2024-01-10T05:41:46;7.40;;;4.50;;
14306;SDS011;7237;49.500;11.400;2024-01-10T05:44:13;10.37;;;4.63;;
14306;SDS011;7237;49.500;11.400;2024-01-10T05:46:40;6.10;;;4.03;;
14306;SDS011;7237;49.500;11.400;2024-01-10T05:49:08;8.50;;;5.10;;
14306;SDS011;7237;49.500;11.400;2024-01-10T05:51:37;9.97;;;4.87;;
14306;SDS011;7237;49.500;11.400;2024-01-10T05:54:04;6.60;;;4.03;;
14306;SDS011;7237;49.500;11.400;2024-01-10T05:56:32;7.37;;;4.67;;
14306;SDS011;7237;49.500;11.400;2024-01-10T05:58:59;6.23;;;4.30;;
14306;SDS011;7237;49.500;11.400;2024-01-10T06:01:26;6.17;;;4.30;;
14306;SDS011;7237;49.500;11.400;2024-01-10T06:03:53;9.53;;;4.97;;
14306;SDS011;7237;49.500;11.400;2024-01-10T06:06:21;6.80;;;5.07;;
14306;SDS011;7237;49.500;11.400;2024-01-10T06:08:50;6.20;;;4.50;;
14306;SDS011;7237;49.500;11.400;2024-01-10T06:11:17;7.07;;;4.50;;
14306;SDS011;7237;49.500;11.400;2024-01-10T06:13:45;7.00;;;4.73;;
14306;SDS011;7237;49.500;11.400;2024-01-10T06:16:12;5.97;;;4.07;;
14306;SDS011;7237;49.500;11.400;2024-01-10T06:18:39;6.77;;;4.37;;
14306;SDS011;7237;49.500;11.400;2024-01-10T06:21:06;7.60;;;4.77;;
14306;SDS011;7237;49.500;11.400;2024-01-10T06:23:33;8.33;;;5.00;;
14306;SDS011;7237;49.500;11.400;2024-01-10T06:26:02;8.67;;;5.53;;
14306;SDS011;7237;49.500;11.400;2024-01-10T06:28:30;8.07;;;4.93;;
14306;SDS011;7237;49.500;11.400;2024-01-10T06:30:57;7.10;;;4.63;;
14306;SDS011;7237;49.500;11.400;2024-01-10T06:33:24;10.60;;;4.97;;
14306;SDS011;7237;49.500;11.400;2024-01-10T06:35:51;5.80;;;4.00;;
14306;SDS011;7237;49.500;11.400;2024-01-10T06:38:19;7.87;;;4.63;;
14306;SDS011;7237;49.500;11.400;2024-01-10T06:40:47;8.57;;;5.27;;
14306;SDS011;7237;49.500;11.400;2024-01-10T06:43:16;7.07;;;5.07;;
14306;SDS011;7237;49.500;11.400;2024-01-10T06:45:44;9.07;;;4.70;;
14306;SDS011;7237;49.500;11.400;2024-01-10T06:48:11;8.60;;;5.17;;
14306;SDS011;7237;49.500;11.400;2024-01-10T06:50:38;7.03;;;4.47;;
14306;SDS011;7237;49.500;11.400;2024-01-10T06:53:05;9.57;;;4.97;;
14306;SDS011;7237;49.500;11.400;2024-01-10T06:55:33;8.37;;;4.23;;
14306;SDS011;7237;49.500;11.400;2024-01-10T06:58:00;10.03;;;5.40;;
14306;SDS011;7237;49.500;11.400;2024-01-10T07:00:29;9.10;;;4.70;;
14306;SDS011;7237;49.500;11.400;2024-01-10T07:02:56;7.23;;;4.83;;
14306;SDS011;7237;49.500;11.400;2024-01-10T07:05:23;9.00;;;5.67;;
14306;SDS011;7237;49.500;11.400;2024-01-10T07:07:50;8.07;;;4.83;;
14306;SDS011;7237;49.500;11.400;2024-01-10T07:10:17;8.80;;;5.43;;
14306;SDS011;7237;49.500;11.400;2024-01-10T07:12:44;9.87;;;5.30;;
14306;SDS011;7237;49.500;11.400;2024-01-10T07:15:12;7.63;;;4.97;;
14306;SDS011;7237;49.500;11.400;2024-01-10T07:17:41;7.07;;;4.80;;
14306;SDS011;7237;49.500;11.400;2024-01-10T07:20:08;10.27;;;5.37;;
14306;SDS011;7237;49.500;11.400;2024-01-10T07:22:37;8.77;;;6.03;;
14306;SDS011;7237;49.500;11.400;2024-01-10T07:25:06;8.17;;;5.20;;
14306;SDS011;7237;49.500;11.400;2024-01-10T07:27:33;7.27;;;4.80;;
14306;SDS011;7237;49.500;11.400;2024-01-10T07:30:02;8.00;;;5.10;;
14306;SDS011;7237;49.500;11.400;2024-01-10T07:32:29;10.63;;;5.40;;
14306;SDS011;7237;49.500;11.400;2024-01-10T07:34:58;7.90;;;4.70;;
14306;SDS011;7237;49.500;11.400;2024-01-10T07:37:25;9.17;;;5.00;;
14306;SDS011;7237;49.500;11.400;2024-01-10T07:39:52;8.97;;;5.10;;
14306;SDS011;7237;49.500;11.400;2024-01-10T07:42:19;5.67;;;4.27;;
14306;SDS011;7237;49.500;11.400;2024-01-10T07:44:46;8.17;;;4.83;;
14306;SDS011;7237;49.500;11.400;2024-01-10T07:47:13;8.00;;;4.60;;
14306;SDS011;7237;49.500;11.400;2024-01-10T07:49:40;9.93;;;5.00;;
14306;SDS011;7237;49.500;11.400;2024-01-10T07:52:08;9.73;;;4.70;;
14306;SDS011;7237;49.500;11.400;2024-01-10T07:54:36;13.70;;;5.67;;
14306;SDS011;7237;49.500;11.400;2024-01-10T07:57:03;9.83;;;5.53;;
14306;SDS011;7237;49.500;11.400;2024-01-10T07:59:31;8.87;;;5.13;;
14306;SDS011;7237;49.500;11.400;2024-01-10T08:01:59;8.47;;;5.03;;
14306;SDS011;7237;49.500;11.400;2024-01-10T08:04:27;7.33;;;4.90;;
14306;SDS011;7237;49.500;11.400;2024-01-10T08:06:54;10.20;;;5.53;;
14306;SDS011;7237;49.500;11.400;2024-01-10T08:09:23;9.27;;;5.67;;
14306;SDS011;7237;49.500;11.400;2024-01-10T08:11:50;7.83;;;5.17;;
14306;SDS011;7237;49.500;11.400;2024-01-10T08:14:17;11.20;;;5.27;;
14306;SDS011;7237;49.500;11.400;2024-01-10T08:16:44;8.40;;;5.00;;
14306;SDS011;7237;49.500;11.400;2024-01-10T08:19:11;8.17;;;5.30;;
14306;SDS011;7237;49.500;11.400;2024-01-10T08:21:38;8.83;;;5.17;;
14306;SDS011;7237;49.500;11.400;2024-01-10T08:24:06;9.00;;;5.40;;
14306;SDS011;7237;49.500;11.400;2024-01-10T08:26:34;7.17;;;5.23;;
14306;SDS011;7237;49.500;11.400;2024-01-10T08:29:02;9.47;;;5.73;;
14306;SDS011;7237;49.500;11.400;2024-01-10T08:31:30;9.03;;;5.40;;
14306;SDS011;7237;49.500;11.400;2024-01-10T08:33:57;9.87;;;6.37;;
14306;SDS011;7237;49.500;11.400;2024-01-10T08:36:24;9.83;;;5.70;;
14306;SDS011;7237;49.500;11.400;2024-01-10T08:38:51;9.73;;;5.80;;
14306;SDS011;7237;49.500;11.400;2024-01-10T08:41:18;7.67;;;5.03;;
14306;SDS011;7237;49.500;11.400;2024-01-10T08:43:46;9.77;;;5.90;;
14306;SDS011;7237;49.500;11.400;2024-01-10T08:46:13;7.93;;;5.63;;
14306;SDS011;7237;49.500;11.400;2024-01-10T08:48:41;9.10;;;5.23;;
14306;SDS011;7237;49.500;11.400;2024-01-10T08:51:08;8.67;;;6.10;;
14306;SDS011;7237;49.500;11.400;2024-01-10T08:53:36;10.37;;;5.87;;
14306;SDS011;7237;49.500;11.400;2024-01-10T08:56:03;9.10;;;6.10;;
14306;SDS011;7237;49.500;11.400;2024-01-10T08:58:30;9.83;;;5.97;;
14306;SDS011;7237;49.500;11.400;2024-01-10T09:00:58;10.07;;;5.67;;
14306;SDS011;7237;49.500;11.400;2024-01-10T09:03:26;8.57;;;5.57;;
14306;SDS011;7237;49.500;11.400;2024-01-10T09:05:53;9.43;;;6.10;;
14306;SDS011;7237;49.500;11.400;2024-01-10T09:08:20;9.10;;;6.07;;
14306;SDS011;7237;49.500;11.400;2024-01-10T09:10:47;9.23;;;6.27;;
14306;SDS011;7237;49.500;11.400;2024-01-10T09:13:14;9.80;;;5.80;;
14306;SDS011;7237;49.500;11.400;2024-01-10T09:15:41;12.73;;;6.80;;
14306;SDS011;7237;49.500;11.400;2024-01-10T09:18:10;10.20;;;6.57;;
14306;SDS011;7237;49.500;11.400;2024-01-10T09:20:37;12.77;;;6.23;;
14306;SDS011;7237;49.500;11.400;2024-01-10T09:23:04;7.97;;;5.23;;
14306;SDS011;7237;49.500;11.400;2024-01-10T09:25:31;10.17;;;6.07;;
14306;SDS011;7237;49.500;11.400;2024-01-10T09:27:58;12.87;;;7.43;;
14306;SDS011;7237;49.500;11.400;2024-01-10T09:30:25;9.83;;;6.20;;
14306;SDS011;7237;49.500;11.400;2024-01-10T09:32:52;8.73;;;5.97;;
14306;SDS011;7237;49.500;11.400;2024-01-10T09:35:22;9.47;;;6.17;;
14306;SDS011;7237;49.500;11.400;2024-01-10T09:37:50;10.37;;;5.87;;
14306;SDS011;7237;49.500;11.400;2024-01-10T09:40:18;8.77;;;6.03;;
14306;SDS011;7237;49.500;11.400;2024-01-10T09:42:46;9.40;;;5.90;;
14306;SDS011;7237;49.500;11.400;2024-01-10T09:45:16;10.43;;;6.57;;
14306;SDS011;7237;49.500;11.400;2024-01-10T09:47:43;8.37;;;6.33;;
14306;SDS011;7237;49.500;11.400;2024-01-10T09:50:12;8.97;;;6.40;;
14306;SDS011;7237;49.500;11.400;2024-01-10T09:52:45;9.50;;;6.20;;
14306;SDS011;7237;49.500;11.400;2024-01-10T09:55:15;9.90;;;6.67;;
14306;SDS011;7237;49.500;11.400;2024-01-10T09:57:42;9.43;;;6.27;;
14306;SDS011;7237;49.500;11.400;2024-01-10T10:00:10;10.17;;;6.70;;
14306;SDS011;7237;49.500;11.400;2024-01-10T10:02:37;9.13;;;5.77;;
14306;SDS011;7237;49.500;11.400;2024-01-10T10:05:07;12.27;;;6.73;;
14306;SDS011;7237;49.500;11.400;2024-01-10T10:07:44;10.10;;;6.77;;
14306;SDS011;7237;49.500;11.400;2024-01-10T10:10:11;11.53;;;7.17;;
14306;SDS011;7237;49.500;11.400;2024-01-10T10:12:43;8.83;;;6.03;;
14306;SDS011;7237;49.500;11.400;2024-01-10T10:15:10;10.47;;;6.07;;
14306;SDS011;7237;49.500;11.400;2024-01-10T10:17:38;11.17;;;6.93;;
14306;SDS011;7237;49.500;11.400;2024-01-10T10:20:11;10.60;;;6.53;;
14306;SDS011;7237;49.500;11.400;2024-01-10T10:22:39;9.53;;;6.43;;
14306;SDS011;7237;49.500;11.400;2024-01-10T10:25:08;10.43;;;6.60;;
14306;SDS011;7237;49.500;11.400;2024-01-10T10:27:36;10.77;;;6.63;;
14306;SDS011;7237;49.500;11.400;2024-01-10T10:30:04;10.70;;;7.60;;
14306;SDS011;7237;49.500;11.400;2024-01-10T10:32:34;11.97;;;7.13;;
14306;SDS011;7237;49.500;11.400;2024-01-10T10:35:01;9.63;;;6.87;;
14306;SDS011;7237;49.500;11.400;2024-01-10T10:37:30;10.67;;;6.40;;
14306;SDS011;7237;49.500;11.400;2024-01-10T10:39:57;10.23;;;6.90;;
14306;SDS011;7237;49.500;11.400;2024-01-10T10:42:25;10.73;;;6.83;;
14306;SDS011;7237;49.500;11.400;2024-01-10T10:44:53;11.30;;;6.40;;
14306;SDS011;7237;49.500;11.400;2024-01-10T10:47:24;12.33;;;7.37;;
14306;SDS011;7237;49.500;11.400;2024-01-10T10:49:54;9.53;;;6.50;;
14306;SDS011;7237;49.500;11.400;2024-01-10T10:52:21;10.80;;;6.47;;
14306;SDS011;7237;49.500;11.400;2024-01-10T10:54:49;10.50;;;6.87;;
14306;SDS011;7237;49.500;11.400;2024-01-10T10:57:20;10.67;;;6.70;;
14306;SDS011;7237;49.500;11.400;2024-01-10T10:59:49;9.50;;;6.40;;
14306;SDS011;7237;49.500;11.400;2024-01-10T11:02:18;11.40;;;7.07;;
14306;SDS011;7237;49.500;11.400;2024-01-10T11:04:48;12.00;;;6.77;;
14306;SDS011;7237;49.500;11.400;2024-01-10T11:07:15;9.07;;;6.33;;
14306;SDS011;7237;49.500;11.400;2024-01-10T11:09:42;9.70;;;6.60;;
14306;SDS011;7237;49.500;11.400;2024-01-10T11:12:14;10.97;;;6.90;;
14306;SDS011;7237;49.500;11.400;2024-01-10T11:15:02;10.17;;;6.97;;
14306;SDS011;7237;49.500;11.400;2024-01-10T11:17:40;11.93;;;6.50;;
14306;SDS011;7237;49.500;11.400;2024-01-10T11:20:14;8.60;;;6.30;;
14306;SDS011;7237;49.500;11.400;2024-01-10T11:23:04;9.70;;;6.67;;
14306;SDS011;7237;49.500;11.400;2024-01-10T11:25:35;11.17;;;7.63;;
14306;SDS011;7237;49.500;11.400;2024-01-10T11:28:02;9.20;;;5.77;;
14306;SDS011;7237;49.500;11.400;2024-01-10T11:30:31;10.27;;;6.53;;
14306;SDS011;7237;49.500;11.400;2024-01-10T11:33:00;10.10;;;6.53;;
14306;SDS011;7237;49.500;11.400;2024-01-10T11:35:27;10.70;;;6.70;;
14306;SDS011;7237;49.500;11.400;2024-01-10T11:37:59;9.20;;;6.70;;
14306;SDS011;7237;49.500;11.400;2024-01-10T11:43:11;9.97;;;7.20;;
14306;SDS011;7237;49.500;11.400;2024-01-10T11:45:43;10.87;;;7.27;;
14306;SDS011;7237;49.500;11.400;2024-01-10T11:48:17;11.30;;;7.73;;
14306;SDS011;7237;49.500;11.400;2024-01-10T11:50:44;11.43;;;6.83;;
14306;SDS011;7237;49.500;11.400;2024-01-10T11:53:11;9.40;;;6.70;;
14306;SDS011;7237;49.500;11.400;2024-01-10T11:55:47;11.37;;;6.93;;
14306;SDS011;7237;49.500;11.400;2024-01-10T11:58:15;11.23;;;7.13;;
14306;SDS011;7237;49.500;11.400;2024-01-10T12:00:44;11.17;;;7.27;;
14306;SDS011;7237;49.500;11.400;2024-01-10T12:03:12;10.37;;;7.20;;
14306;SDS011;7237;49.500;11.400;2024-01-10T12:05:39;13.77;;;7.33;;
14306;SDS011;7237;49.500;11.400;2024-01-10T12:08:07;10.90;;;6.47;;
14306;SDS011;7237;49.500;11.400;2024-01-10T12:10:34;10.27;;;6.83;;
14306;SDS011;7237;49.500;11.400;2024-01-10T12:13:03;11.27;;;6.90;;
14306;SDS011;7237;49.500;11.400;2024-01-10T12:15:30;11.50;;;6.93;;
14306;SDS011;7237;49.500;11.400;2024-01-10T12:17:58;9.93;;;6.53;;
14306;SDS011;7237;49.500;11.400;2024-01-10T12:20:26;11.90;;;6.80;;
14306;SDS011;7237;49.500;11.400;2024-01-10T12:22:53;9.87;;;6.73;;
14306;SDS011;7237;49.500;11.400;2024-01-10T12:25:20;10.73;;;7.00;;
14306;SDS011;7237;49.500;11.400;2024-01-10T12:27:47;11.53;;;6.63;;
14306;SDS011;7237;49.500;11.400;2024-01-10T12:30:15;9.37;;;6.40;;
14306;SDS011;7237;49.500;11.400;2024-01-10T12:32:43;9.90;;;7.03;;
14306;SDS011;7237;49.500;11.400;2024-01-10T12:35:11;10.70;;;7.07;;
14306;SDS011;7237;49.500;11.400;2024-01-10T12:37:38;13.30;;;7.33;;
14306;SDS011;7237;49.500;11.400;2024-01-10T12:40:07;9.90;;;6.80;;
14306;SDS011;7237;49.500;11.400;2024-01-10T12:42:35;11.03;;;7.10;;
14306;SDS011;7237;49.500;11.400;2024-01-10T12:45:02;12.73;;;7.07;;
14306;SDS011;7237;49.500;11.400;2024-01-10T12:47:29;10.67;;;6.90;;
14306;SDS011;7237;49.500;11.400;2024-01-10T12:49:56;9.37;;;6.13;;
14306;SDS011;7237;49.500;11.400;2024-01-10T12:52:25;9.40;;;6.67;;
14306;SDS011;7237;49.500;11.400;2024-01-10T12:54:52;11.43;;;7.57;;
14306;SDS011;7237;49.500;11.400;2024-01-10T12:57:19;8.93;;;6.60;;
14306;SDS011;7237;49.500;11.400;2024-01-10T12:59:48;9.27;;;6.57;;
14306;SDS011;7237;49.500;11.400;2024-01-10T13:02:15;13.13;;;7.43;;
14306;SDS011;7237;49.500;11.400;2024-01-10T13:04:43;11.83;;;7.27;;
14306;SDS011;7237;49.500;11.400;2024-01-10T13:07:10;10.70;;;6.40;;
14306;SDS011;7237;49.500;11.400;2024-01-10T13:09:39;10.87;;;6.90;;
14306;SDS011;7237;49.500;11.400;2024-01-10T13:12:06;10.40;;;6.60;;
14306;SDS011;7237;49.500;11.400;2024-01-10T13:14:34;11.23;;;6.97;;
14306;SDS011;7237;49.500;11.400;2024-01-10T13:17:01;9.13;;;6.53;;
14306;SDS011;7237;49.500;11.400;2024-01-10T13:19:29;10.13;;;6.63;;
14306;SDS011;7237;49.500;11.400;2024-01-10T13:21:56;15.53;;;7.33;;
14306;SDS011;7237;49.500;11.400;2024-01-10T13:24:23;10.17;;;7.13;;
14306;SDS011;7237;49.500;11.400;2024-01-10T13:26:52;11.63;;;7.30;;
14306;SDS011;7237;49.500;11.400;2024-01-10T13:29:19;11.23;;;6.83;;
14306;SDS011;7237;49.500;11.400;2024-01-10T13:31:46;10.90;;;6.97;;
14306;SDS011;7237;49.500;11.400;2024-01-10T13:34:14;10.10;;;6.57;;
14306;SDS011;7237;49.500;11.400;2024-01-10T13:36:41;13.03;;;6.60;;
14306;SDS011;7237;49.500;11.400;2024-01-10T13:39:08;10.70;;;6.37;;
14306;SDS011;7237;49.500;11.400;2024-01-10T13:41:40;10.77;;;7.17;;
14306;SDS011;7237;49.500;11.400;2024-01-10T13:44:08;10.07;;;7.00;;
14306;SDS011;7237;49.500;11.400;2024-01-10T13:46:35;10.60;;;6.90;;
14306;SDS011;7237;49.500;11.400;2024-01-10T13:49:02;9.47;;;6.73;;
14306;SDS011;7237;49.500;11.400;2024-01-10T13:51:30;11.07;;;7.33;;
14306;SDS011;7237;49.500;11.400;2024-01-10T13:53:57;9.80;;;7.07;;
14306;SDS011;7237;49.500;11.400;2024-01-10T13:56:24;10.80;;;7.03;;
14306;SDS011;7237;49.500;11.400;2024-01-10T13:58:53;11.77;;;7.20;;
14306;SDS011;7237;49.500;11.400;2024-01-10T14:01:21;10.97;;;6.70;;
14306;SDS011;7237;49.500;11.400;2024-01-10T14:03:48;11.97;;;6.70;;
14306;SDS011;7237;49.500;11.400;2024-01-10T14:06:15;10.30;;;6.90;;
14306;SDS011;7237;49.500;11.400;2024-01-10T14:08:42;8.57;;;6.13;;
14306;SDS011;7237;49.500;11.400;2024-01-10T14:11:12;9.90;;;6.30;;
14306;SDS011;7237;49.500;11.400;2024-01-10T14:13:39;13.67;;;7.10;;
14306;SDS011;7237;49.500;11.400;2024-01-10T14:16:06;8.97;;;6.43;;
14306;SDS011;7237;49.500;11.400;2024-01-10T14:18:35;9.53;;;6.77;;
14306;SDS011;7237;49.500;11.400;2024-01-10T14:21:02;9.60;;;6.30;;
14306;SDS011;7237;49.500;11.400;2024-01-10T14:23:30;9.40;;;6.63;;
14306;SDS011;7237;49.500;11.400;2024-01-10T14:25:57;9.43;;;6.97;;
14306;SDS011;7237;49.500;11.400;2024-01-10T14:28:24;11.20;;;6.50;;
14306;SDS011;7237;49.500;11.400;2024-01-10T14:30:51;10.77;;;7.60;;
14306;SDS011;7237;49.500;11.400;2024-01-10T14:33:18;9.90;;;6.50;;
14306;SDS011;7237;49.500;11.400;2024-01-10T14:35:46;10.30;;;6.90;;
14306;SDS011;7237;49.500;11.400;2024-01-10T14:38:14;12.93;;;7.27;;
14306;SDS011;7237;49.500;11.400;2024-01-10T14:40:41;9.87;;;7.10;;
14306;SDS011;7237;49.500;11.400;2024-01-10T14:43:08;11.00;;;6.93;;
14306;SDS011;7237;49.500;11.400;2024-01-10T14:45:35;10.03;;;6.60;;
14306;SDS011;7237;49.500;11.400;2024-01-10T14:48:03;10.63;;;7.10;;